createdAt,value
2022-11-29T00:07:11.617Z,0.81
2022-11-29T00:17:11.530Z,0.8
2022-11-29T00:27:11.605Z,0.75
2022-11-29T00:37:11.649Z,0.72
2022-11-29T00:47:11.704Z,0.69
2022-11-29T00:57:11.579Z,0.69
2022-11-29T01:07:11.640Z,0.66
2022-11-29T01:17:11.592Z,0.67
2022-11-29T01:27:11.653Z,0.68
2022-11-29T01:37:11.595Z,0.69
2022-11-29T01:47:11.640Z,0.68
2022-11-29T01:57:11.588Z,0.7
2022-11-29T02:07:11.672Z,0.71
2022-11-29T02:17:11.657Z,0.7
2022-11-29T02:27:11.657Z,0.71
2022-11-29T02:37:11.890Z,0.66
2022-11-29T02:47:11.681Z,0.69
2022-11-29T02:57:11.638Z,0.65
2022-11-29T03:07:11.726Z,0.63
2022-11-29T03:17:11.654Z,0.64
2022-11-29T03:27:11.696Z,0.65
2022-11-29T03:37:11.651Z,0.64
2022-11-29T03:47:11.724Z,0.64
2022-11-29T03:57:11.676Z,0.64
2022-11-29T04:07:11.712Z,0.69
2022-11-29T04:17:11.700Z,0.66
2022-11-29T04:27:11.718Z,0.68
2022-11-29T04:37:11.723Z,0.7
2022-11-29T04:47:11.731Z,0.71
2022-11-29T04:57:11.721Z,0.74
2022-11-29T05:07:11.772Z,0.73
2022-11-29T05:17:11.739Z,0.73
2022-11-29T05:27:11.763Z,0.74
2022-11-29T05:37:11.714Z,0.74
2022-11-29T05:47:11.779Z,0.75
2022-11-29T05:57:11.731Z,0.74
2022-11-29T06:07:11.769Z,0.72
2022-11-29T06:17:11.740Z,0.72
2022-11-29T06:27:11.785Z,0.68
2022-11-29T06:37:11.764Z,0.65
2022-11-29T06:47:11.795Z,0.64
2022-11-29T06:57:11.769Z,0.63
2022-11-29T07:07:11.796Z,0.7
2022-11-29T07:17:11.756Z,0.72
2022-11-29T07:27:11.813Z,0.83
2022-11-29T07:37:11.786Z,0.9
2022-11-29T07:47:11.821Z,0.99
2022-11-29T07:57:11.808Z,1.07
2022-11-29T08:07:11.836Z,1.08
2022-11-29T08:17:11.829Z,1.14
2022-11-29T08:27:11.856Z,1.3
2022-11-29T08:37:11.878Z,1.38
2022-11-29T08:47:11.834Z,1.48
2022-11-29T08:57:40.679Z,1.56
2022-11-29T09:07:11.837Z,1.59
2022-11-29T09:17:11.841Z,1.55
2022-11-29T09:27:11.890Z,1.63
2022-11-29T09:37:11.842Z,1.74
2022-11-29T09:47:11.853Z,1.91
2022-11-29T09:57:11.860Z,1.96
2022-11-29T10:07:11.909Z,2.08
2022-11-29T10:17:11.865Z,2.26
2022-11-29T10:27:11.875Z,2.47
2022-11-29T10:37:11.856Z,2.52
2022-11-29T10:47:11.907Z,2.7
2022-11-29T10:57:11.859Z,2.74
2022-11-29T11:07:11.882Z,2.94
2022-11-29T11:17:11.887Z,3.07
2022-11-29T11:27:11.891Z,3.15
2022-11-29T11:37:11.863Z,3.07
2022-11-29T11:47:11.880Z,3.08
2022-11-29T11:57:11.870Z,3.1
2022-11-29T12:07:11.878Z,3.17
2022-11-29T12:17:15.508Z,3.31
2022-11-29T12:27:11.951Z,3.47
2022-11-29T12:37:11.870Z,3.52
2022-11-29T12:47:35.006Z,3.59
2022-11-29T12:57:11.911Z,3.57
2022-11-29T13:07:11.905Z,3.55
2022-11-29T13:17:11.873Z,3.41
2022-11-29T13:27:11.897Z,3.35
2022-11-29T13:37:11.890Z,3.28
2022-11-29T13:47:11.967Z,3.24
2022-11-29T13:57:11.897Z,3.28
2022-11-29T14:07:11.944Z,3.3
2022-11-29T14:17:11.913Z,3.24
2022-11-29T14:37:11.938Z,3.16
2022-11-29T14:47:11.908Z,3.07
2022-11-29T14:57:11.923Z,3.02
2022-11-29T15:07:11.921Z,2.95
2022-11-29T15:17:11.931Z,2.9
2022-11-29T15:27:11.920Z,2.85
2022-11-29T15:37:11.939Z,2.9
2022-11-29T15:47:11.907Z,2.89
2022-11-29T15:57:11.950Z,2.83
2022-11-29T16:07:11.923Z,2.7
2022-11-29T16:17:11.947Z,2.76
2022-11-29T16:27:11.927Z,2.78
2022-11-29T16:37:11.962Z,2.75
2022-11-29T16:47:11.944Z,2.79
2022-11-29T16:57:11.958Z,2.77
2022-11-29T17:07:11.930Z,2.77
2022-11-29T17:17:11.999Z,2.74
2022-11-29T17:27:11.976Z,2.74
2022-11-29T17:37:12.001Z,2.74
2022-11-29T17:47:11.938Z,2.71
2022-11-29T17:57:11.960Z,2.71
2022-11-29T18:07:11.947Z,2.67
2022-11-29T18:17:12.056Z,2.63
2022-11-29T18:27:11.962Z,2.57
2022-11-29T18:37:16.274Z,2.47
2022-11-29T18:47:11.970Z,2.3
2022-11-29T18:57:11.983Z,2.25
2022-11-29T19:07:11.967Z,2.18
2022-11-29T19:17:12.030Z,2.16
2022-11-29T19:27:12.008Z,2.16
2022-11-29T19:37:12.012Z,2.08
2022-11-29T19:47:11.973Z,2.04
2022-11-29T19:57:12.020Z,2.02
2022-11-29T20:07:11.980Z,2.01
2022-11-29T20:17:12.055Z,2.02
2022-11-29T20:27:11.997Z,1.99
2022-11-29T20:37:12.163Z,1.92
2022-11-29T20:47:12.011Z,1.9
2022-11-29T20:57:12.035Z,1.91
2022-11-29T21:07:12.015Z,1.91
2022-11-29T21:17:12.052Z,1.89
2022-11-29T21:27:12.004Z,1.91
2022-11-29T21:37:12.062Z,1.99
2022-11-29T21:47:12.043Z,1.94
2022-11-29T21:57:12.130Z,1.93
2022-11-29T22:07:12.056Z,1.96
2022-11-29T22:17:19.781Z,1.99
2022-11-29T22:27:12.028Z,1.99
2022-11-29T22:37:12.043Z,1.89
2022-11-29T22:47:12.076Z,1.89
2022-11-29T22:57:12.070Z,1.84
2022-11-29T23:07:12.068Z,1.82
2022-11-29T23:17:12.124Z,1.88
2022-11-29T23:27:12.059Z,1.9
2022-11-29T23:37:12.095Z,1.91
2022-11-29T23:47:12.099Z,1.94
2022-11-29T23:57:12.086Z,1.96
